sensor_id;sensor_type;location;lat;lon;timestamp;temperature;humidity
22787;DHT22;63134;52.020;4.714;2023-05-02T00:01:13;11.90;92.80
22787;DHT22;63134;52.020;4.714;2023-05-02T00:03:59;11.90;92.90
22787;DHT22;63134;52.020;4.714;2023-05-02T00:06:45;11.90;93.00
22787;DHT22;63134;52.020;4.714;2023-05-02T00:09:33;12.00;93.10
22787;DHT22;63134;52.020;4.714;2023-05-02T00:12:19;12.00;93.10
22787;DHT22;63134;52.020;4.714;2023-05-02T00:15:05;12.00;93.10
22787;DHT22;63134;52.020;4.714;2023-05-02T00:17:50;12.10;93.20
22787;DHT22;63134;52.020;4.714;2023-05-02T00:20:38;12.10;93.30
22787;DHT22;63134;52.020;4.714;2023-05-02T00:23:23;12.10;93.30
22787;DHT22;63134;52.020;4.714;2023-05-02T00:26:09;12.10;93.30
22787;DHT22;63134;52.020;4.714;2023-05-02T00:28:58;12.10;93.40
22787;DHT22;63134;52.020;4.714;2023-05-02T00:31:45;12.20;93.40
22787;DHT22;63134;52.020;4.714;2023-05-02T00:34:33;12.20;93.50
22787;DHT22;63134;52.020;4.714;2023-05-02T00:37:28;12.20;93.50
22787;DHT22;63134;52.020;4.714;2023-05-02T00:40:13;12.20;93.40
22787;DHT22;63134;52.020;4.714;2023-05-02T00:42:58;12.30;93.40
22787;DHT22;63134;52.020;4.714;2023-05-02T00:45:44;12.30;93.40
22787;DHT22;63134;52.020;4.714;2023-05-02T00:48:30;12.30;93.40
22787;DHT22;63134;52.020;4.714;2023-05-02T00:51:16;12.30;93.20
22787;DHT22;63134;52.020;4.714;2023-05-02T00:54:03;12.30;93.30
22787;DHT22;63134;52.020;4.714;2023-05-02T00:56:49;12.30;93.30
22787;DHT22;63134;52.020;4.714;2023-05-02T00:59:35;12.30;93.20
22787;DHT22;63134;52.020;4.714;2023-05-02T01:02:42;12.40;93.30
22787;DHT22;63134;52.020;4.714;2023-05-02T01:05:43;12.40;93.30
22787;DHT22;63134;52.020;4.714;2023-05-02T01:08:46;12.40;93.20
22787;DHT22;63134;52.020;4.714;2023-05-02T01:12:03;12.40;93.20
22787;DHT22;63134;52.020;4.714;2023-05-02T01:14:53;12.30;93.20
22787;DHT22;63134;52.020;4.714;2023-05-02T01:17:43;12.30;93.10
22787;DHT22;63134;52.020;4.714;2023-05-02T01:20:32;12.20;93.10
22787;DHT22;63134;52.020;4.714;2023-05-02T01:26:35;12.10;93.00
22787;DHT22;63134;52.020;4.714;2023-05-02T01:29:23;12.10;93.00
22787;DHT22;63134;52.020;4.714;2023-05-02T01:32:11;12.10;92.90
22787;DHT22;63134;52.020;4.714;2023-05-02T01:35:00;12.10;92.80
22787;DHT22;63134;52.020;4.714;2023-05-02T01:37:51;12.10;92.70
22787;DHT22;63134;52.020;4.714;2023-05-02T01:40:38;12.00;92.70
22787;DHT22;63134;52.020;4.714;2023-05-02T01:43:25;12.00;92.70
22787;DHT22;63134;52.020;4.714;2023-05-02T01:46:12;12.00;92.70
22787;DHT22;63134;52.020;4.714;2023-05-02T01:49:00;12.00;92.70
22787;DHT22;63134;52.020;4.714;2023-05-02T01:51:48;12.00;92.70
22787;DHT22;63134;52.020;4.714;2023-05-02T01:54:36;12.00;92.50
22787;DHT22;63134;52.020;4.714;2023-05-02T01:57:22;11.90;92.50
22787;DHT22;63134;52.020;4.714;2023-05-02T02:00:08;11.90;92.60
22787;DHT22;63134;52.020;4.714;2023-05-02T02:02:59;11.90;92.50
22787;DHT22;63134;52.020;4.714;2023-05-02T02:05:55;11.80;92.40
22787;DHT22;63134;52.020;4.714;2023-05-02T02:08:42;11.80;92.20
22787;DHT22;63134;52.020;4.714;2023-05-02T02:14:59;11.80;92.10
22787;DHT22;63134;52.020;4.714;2023-05-02T02:18:01;11.70;91.70
22787;DHT22;63134;52.020;4.714;2023-05-02T02:20:58;11.70;91.80
22787;DHT22;63134;52.020;4.714;2023-05-02T02:23:46;11.70;91.70
22787;DHT22;63134;52.020;4.714;2023-05-02T02:26:35;11.70;91.30
22787;DHT22;63134;52.020;4.714;2023-05-02T02:29:21;11.70;91.30
22787;DHT22;63134;52.020;4.714;2023-05-02T02:32:06;11.60;91.10
22787;DHT22;63134;52.020;4.714;2023-05-02T02:34:52;11.70;90.90
22787;DHT22;63134;52.020;4.714;2023-05-02T02:41:09;11.50;90.70
22787;DHT22;63134;52.020;4.714;2023-05-02T02:44:26;11.50;89.80
22787;DHT22;63134;52.020;4.714;2023-05-02T02:50:31;11.40;89.10
22787;DHT22;63134;52.020;4.714;2023-05-02T02:53:25;11.40;88.20
22787;DHT22;63134;52.020;4.714;2023-05-02T02:56:19;11.30;87.90
22787;DHT22;63134;52.020;4.714;2023-05-02T02:59:14;11.20;88.30
22787;DHT22;63134;52.020;4.714;2023-05-02T03:02:07;11.20;88.30
22787;DHT22;63134;52.020;4.714;2023-05-02T03:04:56;11.30;88.50
22787;DHT22;63134;52.020;4.714;2023-05-02T03:07:41;11.20;88.10
22787;DHT22;63134;52.020;4.714;2023-05-02T03:10:27;11.30;87.60
22787;DHT22;63134;52.020;4.714;2023-05-02T03:13:12;11.20;87.50
22787;DHT22;63134;52.020;4.714;2023-05-02T03:16:29;11.20;87.80
22787;DHT22;63134;52.020;4.714;2023-05-02T03:19:17;11.10;86.80
22787;DHT22;63134;52.020;4.714;2023-05-02T03:22:03;11.10;87.10
22787;DHT22;63134;52.020;4.714;2023-05-02T03:24:50;11.10;86.70
22787;DHT22;63134;52.020;4.714;2023-05-02T03:27:37;11.10;86.90
22787;DHT22;63134;52.020;4.714;2023-05-02T03:30:27;11.10;86.80
22787;DHT22;63134;52.020;4.714;2023-05-02T03:33:15;11.10;86.90
22787;DHT22;63134;52.020;4.714;2023-05-02T03:36:02;11.10;86.90
22787;DHT22;63134;52.020;4.714;2023-05-02T03:38:48;11.10;87.00
22787;DHT22;63134;52.020;4.714;2023-05-02T03:41:34;11.00;86.70
22787;DHT22;63134;52.020;4.714;2023-05-02T03:44:24;11.00;87.10
22787;DHT22;63134;52.020;4.714;2023-05-02T03:47:12;11.00;87.40
22787;DHT22;63134;52.020;4.714;2023-05-02T03:50:00;11.00;87.40
22787;DHT22;63134;52.020;4.714;2023-05-02T03:52:48;10.90;87.20
22787;DHT22;63134;52.020;4.714;2023-05-02T03:55:42;10.90;87.20
22787;DHT22;63134;52.020;4.714;2023-05-02T03:58:34;10.90;87.10
22787;DHT22;63134;52.020;4.714;2023-05-02T04:01:21;10.80;86.70
22787;DHT22;63134;52.020;4.714;2023-05-02T04:04:08;10.80;86.20
22787;DHT22;63134;52.020;4.714;2023-05-02T04:07:02;10.80;86.60
22787;DHT22;63134;52.020;4.714;2023-05-02T04:09:49;10.80;86.30
22787;DHT22;63134;52.020;4.714;2023-05-02T04:12:35;10.80;85.80
22787;DHT22;63134;52.020;4.714;2023-05-02T04:15:20;10.90;85.60
22787;DHT22;63134;52.020;4.714;2023-05-02T04:18:08;10.90;85.50
22787;DHT22;63134;52.020;4.714;2023-05-02T04:20:55;10.90;85.20
22787;DHT22;63134;52.020;4.714;2023-05-02T04:23:41;10.90;84.60
22787;DHT22;63134;52.020;4.714;2023-05-02T04:26:28;10.90;84.00
22787;DHT22;63134;52.020;4.714;2023-05-02T04:29:21;10.90;83.60
22787;DHT22;63134;52.020;4.714;2023-05-02T04:32:08;10.80;83.90
22787;DHT22;63134;52.020;4.714;2023-05-02T04:34:53;10.80;82.90
22787;DHT22;63134;52.020;4.714;2023-05-02T04:37:40;10.80;83.20
22787;DHT22;63134;52.020;4.714;2023-05-02T04:40:26;10.80;83.40
22787;DHT22;63134;52.020;4.714;2023-05-02T04:43:18;10.80;83.20
22787;DHT22;63134;52.020;4.714;2023-05-02T04:46:09;10.80;83.10
22787;DHT22;63134;52.020;4.714;2023-05-02T04:48:56;10.80;83.10
22787;DHT22;63134;52.020;4.714;2023-05-02T04:51:42;10.90;83.00
22787;DHT22;63134;52.020;4.714;2023-05-02T04:54:28;10.90;82.90
22787;DHT22;63134;52.020;4.714;2023-05-02T04:57:14;10.90;82.40
22787;DHT22;63134;52.020;4.714;2023-05-02T05:00:05;10.90;82.30
22787;DHT22;63134;52.020;4.714;2023-05-02T05:02:50;10.90;81.90
22787;DHT22;63134;52.020;4.714;2023-05-02T05:05:37;10.90;82.00
22787;DHT22;63134;52.020;4.714;2023-05-02T05:08:26;10.90;81.70
22787;DHT22;63134;52.020;4.714;2023-05-02T05:11:12;10.90;81.50
22787;DHT22;63134;52.020;4.714;2023-05-02T05:13:58;10.90;81.70
22787;DHT22;63134;52.020;4.714;2023-05-02T05:16:45;10.90;81.40
22787;DHT22;63134;52.020;4.714;2023-05-02T05:19:32;11.00;81.70
22787;DHT22;63134;52.020;4.714;2023-05-02T05:22:17;11.00;81.60
22787;DHT22;63134;52.020;4.714;2023-05-02T05:25:04;11.00;81.50
22787;DHT22;63134;52.020;4.714;2023-05-02T05:27:50;11.10;81.30
22787;DHT22;63134;52.020;4.714;2023-05-02T05:30:37;11.10;81.10
22787;DHT22;63134;52.020;4.714;2023-05-02T05:33:26;11.10;81.10
22787;DHT22;63134;52.020;4.714;2023-05-02T05:36:13;11.10;81.40
22787;DHT22;63134;52.020;4.714;2023-05-02T05:38:59;11.20;81.30
22787;DHT22;63134;52.020;4.714;2023-05-02T05:41:45;11.30;80.70
22787;DHT22;63134;52.020;4.714;2023-05-02T05:44:31;11.30;80.60
22787;DHT22;63134;52.020;4.714;2023-05-02T05:47:19;11.30;80.50
22787;DHT22;63134;52.020;4.714;2023-05-02T05:50:08;11.40;80.10
22787;DHT22;63134;52.020;4.714;2023-05-02T05:52:56;11.40;79.80
22787;DHT22;63134;52.020;4.714;2023-05-02T05:55:42;11.40;79.90
22787;DHT22;63134;52.020;4.714;2023-05-02T05:58:29;11.50;79.40
22787;DHT22;63134;52.020;4.714;2023-05-02T06:01:19;11.50;79.20
22787;DHT22;63134;52.020;4.714;2023-05-02T06:04:08;11.60;78.90
22787;DHT22;63134;52.020;4.714;2023-05-02T06:06:58;11.70;77.70
22787;DHT22;63134;52.020;4.714;2023-05-02T06:09:44;11.70;76.40
22787;DHT22;63134;52.020;4.714;2023-05-02T06:12:29;11.70;76.40
22787;DHT22;63134;52.020;4.714;2023-05-02T06:15:15;11.70;75.00
22787;DHT22;63134;52.020;4.714;2023-05-02T06:18:04;11.70;75.20
22787;DHT22;63134;52.020;4.714;2023-05-02T06:20:53;11.80;75.50
22787;DHT22;63134;52.020;4.714;2023-05-02T06:23:39;11.80;74.10
22787;DHT22;63134;52.020;4.714;2023-05-02T06:26:25;11.80;74.10
22787;DHT22;63134;52.020;4.714;2023-05-02T06:29:12;11.90;74.20
22787;DHT22;63134;52.020;4.714;2023-05-02T06:31:58;12.00;74.00
22787;DHT22;63134;52.020;4.714;2023-05-02T06:34:44;12.00;73.70
22787;DHT22;63134;52.020;4.714;2023-05-02T06:37:34;12.00;73.60
22787;DHT22;63134;52.020;4.714;2023-05-02T06:40:22;12.20;74.10
22787;DHT22;63134;52.020;4.714;2023-05-02T06:43:07;12.10;73.20
22787;DHT22;63134;52.020;4.714;2023-05-02T06:45:55;12.00;73.00
22787;DHT22;63134;52.020;4.714;2023-05-02T06:48:41;11.90;73.10
22787;DHT22;63134;52.020;4.714;2023-05-02T06:51:29;11.90;73.40
22787;DHT22;63134;52.020;4.714;2023-05-02T06:54:16;11.90;73.80
22787;DHT22;63134;52.020;4.714;2023-05-02T06:57:06;11.90;73.20
22787;DHT22;63134;52.020;4.714;2023-05-02T06:59:52;11.90;72.70
22787;DHT22;63134;52.020;4.714;2023-05-02T07:02:37;12.00;73.00
22787;DHT22;63134;52.020;4.714;2023-05-02T07:05:23;12.00;72.70
22787;DHT22;63134;52.020;4.714;2023-05-02T07:08:08;12.10;72.40
22787;DHT22;63134;52.020;4.714;2023-05-02T07:10:54;12.10;72.10
22787;DHT22;63134;52.020;4.714;2023-05-02T07:13:40;12.20;71.70
22787;DHT22;63134;52.020;4.714;2023-05-02T07:16:25;12.20;70.60
22787;DHT22;63134;52.020;4.714;2023-05-02T07:19:17;12.30;70.70
22787;DHT22;63134;52.020;4.714;2023-05-02T07:22:03;12.30;69.30
22787;DHT22;63134;52.020;4.714;2023-05-02T07:24:56;12.40;68.50
22787;DHT22;63134;52.020;4.714;2023-05-02T07:27:41;12.40;68.00
22787;DHT22;63134;52.020;4.714;2023-05-02T07:30:27;12.40;67.90
22787;DHT22;63134;52.020;4.714;2023-05-02T07:33:14;12.30;67.50
22787;DHT22;63134;52.020;4.714;2023-05-02T07:36:00;12.30;68.10
22787;DHT22;63134;52.020;4.714;2023-05-02T07:38:46;12.20;68.50
22787;DHT22;63134;52.020;4.714;2023-05-02T07:41:31;12.10;68.80
22787;DHT22;63134;52.020;4.714;2023-05-02T07:44:17;12.10;68.00
22787;DHT22;63134;52.020;4.714;2023-05-02T07:47:03;12.10;67.60
22787;DHT22;63134;52.020;4.714;2023-05-02T07:49:52;12.10;67.40
22787;DHT22;63134;52.020;4.714;2023-05-02T07:52:38;12.10;66.80
22787;DHT22;63134;52.020;4.714;2023-05-02T07:55:23;12.30;66.30
22787;DHT22;63134;52.020;4.714;2023-05-02T07:58:10;12.40;65.80
22787;DHT22;63134;52.020;4.714;2023-05-02T08:00:56;12.50;65.10
22787;DHT22;63134;52.020;4.714;2023-05-02T08:03:42;12.60;64.60
22787;DHT22;63134;52.020;4.714;2023-05-02T08:06:28;12.70;64.60
22787;DHT22;63134;52.020;4.714;2023-05-02T08:09:13;12.70;63.50
22787;DHT22;63134;52.020;4.714;2023-05-02T08:11:59;12.70;62.60
22787;DHT22;63134;52.020;4.714;2023-05-02T08:14:46;12.60;62.50
22787;DHT22;63134;52.020;4.714;2023-05-02T08:17:32;12.50;63.20
22787;DHT22;63134;52.020;4.714;2023-05-02T08:20:44;12.50;62.30
22787;DHT22;63134;52.020;4.714;2023-05-02T08:23:29;12.40;61.20
22787;DHT22;63134;52.020;4.714;2023-05-02T08:26:15;12.50;61.30
22787;DHT22;63134;52.020;4.714;2023-05-02T08:29:03;12.60;60.50
22787;DHT22;63134;52.020;4.714;2023-05-02T08:31:48;12.60;59.10
22787;DHT22;63134;52.020;4.714;2023-05-02T08:34:34;12.60;58.90
22787;DHT22;63134;52.020;4.714;2023-05-02T08:37:19;12.80;59.20
22787;DHT22;63134;52.020;4.714;2023-05-02T08:40:09;13.00;58.10
22787;DHT22;63134;52.020;4.714;2023-05-02T08:42:56;13.40;57.70
22787;DHT22;63134;52.020;4.714;2023-05-02T08:45:43;13.80;57.00
22787;DHT22;63134;52.020;4.714;2023-05-02T08:48:29;14.20;55.70
22787;DHT22;63134;52.020;4.714;2023-05-02T08:51:22;14.30;53.90
22787;DHT22;63134;52.020;4.714;2023-05-02T08:54:08;14.50;53.00
22787;DHT22;63134;52.020;4.714;2023-05-02T08:56:55;14.70;52.50
22787;DHT22;63134;52.020;4.714;2023-05-02T08:59:42;14.90;52.40
22787;DHT22;63134;52.020;4.714;2023-05-02T09:02:48;15.00;51.60
22787;DHT22;63134;52.020;4.714;2023-05-02T09:05:40;14.80;50.00
22787;DHT22;63134;52.020;4.714;2023-05-02T09:08:25;14.80;50.80
22787;DHT22;63134;52.020;4.714;2023-05-02T09:11:12;15.00;50.80
22787;DHT22;63134;52.020;4.714;2023-05-02T09:13:57;15.20;50.20
22787;DHT22;63134;52.020;4.714;2023-05-02T09:16:48;15.50;49.80
22787;DHT22;63134;52.020;4.714;2023-05-02T09:19:33;15.60;49.80
22787;DHT22;63134;52.020;4.714;2023-05-02T09:22:22;15.60;48.90
22787;DHT22;63134;52.020;4.714;2023-05-02T09:25:08;15.60;48.50
22787;DHT22;63134;52.020;4.714;2023-05-02T09:27:55;15.50;48.50
22787;DHT22;63134;52.020;4.714;2023-05-02T09:30:41;15.40;47.80
22787;DHT22;63134;52.020;4.714;2023-05-02T09:33:27;15.20;47.20
22787;DHT22;63134;52.020;4.714;2023-05-02T09:36:17;15.10;47.70
22787;DHT22;63134;52.020;4.714;2023-05-02T09:39:11;15.10;48.00
22787;DHT22;63134;52.020;4.714;2023-05-02T09:41:58;14.90;47.40
22787;DHT22;63134;52.020;4.714;2023-05-02T09:44:44;14.90;47.60
22787;DHT22;63134;52.020;4.714;2023-05-02T09:47:31;14.80;47.50
22787;DHT22;63134;52.020;4.714;2023-05-02T09:50:33;14.60;47.40
22787;DHT22;63134;52.020;4.714;2023-05-02T09:53:19;14.60;47.60
22787;DHT22;63134;52.020;4.714;2023-05-02T09:56:06;14.50;48.10
22787;DHT22;63134;52.020;4.714;2023-05-02T09:59:11;14.40;48.30
22787;DHT22;63134;52.020;4.714;2023-05-02T10:01:59;14.30;47.60
22787;DHT22;63134;52.020;4.714;2023-05-02T10:04:46;14.10;47.60
22787;DHT22;63134;52.020;4.714;2023-05-02T10:07:32;14.00;48.00
22787;DHT22;63134;52.020;4.714;2023-05-02T10:10:18;13.80;48.50
22787;DHT22;63134;52.020;4.714;2023-05-02T10:13:04;13.70;49.30
22787;DHT22;63134;52.020;4.714;2023-05-02T10:15:58;13.70;49.60
22787;DHT22;63134;52.020;4.714;2023-05-02T10:19:02;13.60;50.00
22787;DHT22;63134;52.020;4.714;2023-05-02T10:21:53;13.60;50.20
22787;DHT22;63134;52.020;4.714;2023-05-02T10:24:43;13.80;50.50
22787;DHT22;63134;52.020;4.714;2023-05-02T10:27:31;14.00;50.50
22787;DHT22;63134;52.020;4.714;2023-05-02T10:30:17;14.30;49.70
22787;DHT22;63134;52.020;4.714;2023-05-02T10:33:03;14.50;49.00
22787;DHT22;63134;52.020;4.714;2023-05-02T10:35:49;14.70;48.10
22787;DHT22;63134;52.020;4.714;2023-05-02T10:38:35;14.70;47.40
22787;DHT22;63134;52.020;4.714;2023-05-02T10:41:24;14.80;47.20
22787;DHT22;63134;52.020;4.714;2023-05-02T10:44:11;14.90;47.10
22787;DHT22;63134;52.020;4.714;2023-05-02T10:46:58;15.10;47.70
22787;DHT22;63134;52.020;4.714;2023-05-02T10:50:01;15.40;46.90
22787;DHT22;63134;52.020;4.714;2023-05-02T10:52:50;15.30;45.40
22787;DHT22;63134;52.020;4.714;2023-05-02T10:55:35;15.20;45.20
22787;DHT22;63134;52.020;4.714;2023-05-02T10:58:21;15.20;45.50
22787;DHT22;63134;52.020;4.714;2023-05-02T11:04:14;15.30;46.20
22787;DHT22;63134;52.020;4.714;2023-05-02T11:09:45;15.90;46.00
22787;DHT22;63134;52.020;4.714;2023-05-02T11:12:48;16.30;45.70
22787;DHT22;63134;52.020;4.714;2023-05-02T11:18:56;17.10;43.80
22787;DHT22;63134;52.020;4.714;2023-05-02T11:21:42;17.60;42.70
22787;DHT22;63134;52.020;4.714;2023-05-02T11:24:44;18.10;41.70
22787;DHT22;63134;52.020;4.714;2023-05-02T11:30:39;19.50;38.80
22787;DHT22;63134;52.020;4.714;2023-05-02T11:33:27;20.70;37.70
22787;DHT22;63134;52.020;4.714;2023-05-02T11:36:12;21.70;36.40
22787;DHT22;63134;52.020;4.714;2023-05-02T11:39:02;22.60;35.50
22787;DHT22;63134;52.020;4.714;2023-05-02T11:41:49;23.30;33.00
22787;DHT22;63134;52.020;4.714;2023-05-02T11:44:57;23.50;30.90
22787;DHT22;63134;52.020;4.714;2023-05-02T11:47:44;24.10;30.50
22787;DHT22;63134;52.020;4.714;2023-05-02T11:50:33;25.20;29.90
22787;DHT22;63134;52.020;4.714;2023-05-02T11:53:20;26.20;28.30
22787;DHT22;63134;52.020;4.714;2023-05-02T11:56:07;26.50;26.70
22787;DHT22;63134;52.020;4.714;2023-05-02T11:58:59;27.30;26.90
22787;DHT22;63134;52.020;4.714;2023-05-02T12:01:51;28.30;25.60
22787;DHT22;63134;52.020;4.714;2023-05-02T12:04:46;27.90;24.60
22787;DHT22;63134;52.020;4.714;2023-05-02T12:07:44;28.40;24.90
22787;DHT22;63134;52.020;4.714;2023-05-02T12:10:37;29.40;23.50
22787;DHT22;63134;52.020;4.714;2023-05-02T12:13:24;29.70;22.50
22787;DHT22;63134;52.020;4.714;2023-05-02T12:16:10;29.90;22.30
22787;DHT22;63134;52.020;4.714;2023-05-02T12:18:56;30.00;22.40
22787;DHT22;63134;52.020;4.714;2023-05-02T12:21:44;29.40;22.40
22787;DHT22;63134;52.020;4.714;2023-05-02T12:24:30;28.60;23.50
22787;DHT22;63134;52.020;4.714;2023-05-02T12:27:16;29.40;23.80
22787;DHT22;63134;52.020;4.714;2023-05-02T12:30:01;30.20;23.00
22787;DHT22;63134;52.020;4.714;2023-05-02T12:32:58;29.90;22.40
22787;DHT22;63134;52.020;4.714;2023-05-02T12:35:45;30.10;22.80
22787;DHT22;63134;52.020;4.714;2023-05-02T12:38:33;29.60;22.80
22787;DHT22;63134;52.020;4.714;2023-05-02T12:41:37;29.10;23.00
22787;DHT22;63134;52.020;4.714;2023-05-02T12:44:37;28.40;23.20
22787;DHT22;63134;52.020;4.714;2023-05-02T12:47:23;28.90;23.50
22787;DHT22;63134;52.020;4.714;2023-05-02T12:50:09;29.20;23.00
22787;DHT22;63134;52.020;4.714;2023-05-02T12:52:55;28.40;23.10
22787;DHT22;63134;52.020;4.714;2023-05-02T12:55:43;28.50;24.10
22787;DHT22;63134;52.020;4.714;2023-05-02T12:58:39;29.50;23.30
22787;DHT22;63134;52.020;4.714;2023-05-02T13:01:26;31.10;22.40
22787;DHT22;63134;52.020;4.714;2023-05-02T13:04:13;31.70;20.80
22787;DHT22;63134;52.020;4.714;2023-05-02T13:06:58;32.10;20.60
22787;DHT22;63134;52.020;4.714;2023-05-02T13:09:44;31.10;20.70
22787;DHT22;63134;52.020;4.714;2023-05-02T13:12:30;30.40;21.10
22787;DHT22;63134;52.020;4.714;2023-05-02T13:15:15;30.00;21.30
22787;DHT22;63134;52.020;4.714;2023-05-02T13:18:01;30.70;21.50
22787;DHT22;63134;52.020;4.714;2023-05-02T13:20:47;31.70;20.60
22787;DHT22;63134;52.020;4.714;2023-05-02T13:23:32;32.60;20.30
22787;DHT22;63134;52.020;4.714;2023-05-02T13:26:18;33.20;19.30
22787;DHT22;63134;52.020;4.714;2023-05-02T13:29:03;33.10;19.10
22787;DHT22;63134;52.020;4.714;2023-05-02T13:31:49;33.20;19.20
22787;DHT22;63134;52.020;4.714;2023-05-02T13:34:34;34.70;18.90
22787;DHT22;63134;52.020;4.714;2023-05-02T13:37:20;36.00;18.00
22787;DHT22;63134;52.020;4.714;2023-05-02T13:40:06;34.90;17.70
22787;DHT22;63134;52.020;4.714;2023-05-02T13:42:53;34.20;18.00
22787;DHT22;63134;52.020;4.714;2023-05-02T13:45:38;35.30;18.00
22787;DHT22;63134;52.020;4.714;2023-05-02T13:48:24;35.70;16.90
22787;DHT22;63134;52.020;4.714;2023-05-02T13:51:09;34.70;17.80
22787;DHT22;63134;52.020;4.714;2023-05-02T13:53:56;34.80;18.00
22787;DHT22;63134;52.020;4.714;2023-05-02T13:56:42;35.70;17.60
22787;DHT22;63134;52.020;4.714;2023-05-02T13:59:28;34.80;17.30
22787;DHT22;63134;52.020;4.714;2023-05-02T14:02:39;34.00;18.50
22787;DHT22;63134;52.020;4.714;2023-05-02T14:05:24;33.70;17.80
22787;DHT22;63134;52.020;4.714;2023-05-02T14:08:10;33.20;19.00
22787;DHT22;63134;52.020;4.714;2023-05-02T14:10:55;33.70;19.00
22787;DHT22;63134;52.020;4.714;2023-05-02T14:13:41;34.70;18.40
22787;DHT22;63134;52.020;4.714;2023-05-02T14:16:27;35.20;18.10
22787;DHT22;63134;52.020;4.714;2023-05-02T14:19:16;35.90;17.80
22787;DHT22;63134;52.020;4.714;2023-05-02T14:22:02;35.30;17.30
22787;DHT22;63134;52.020;4.714;2023-05-02T14:24:47;35.10;17.90
22787;DHT22;63134;52.020;4.714;2023-05-02T14:27:33;35.50;17.60
22787;DHT22;63134;52.020;4.714;2023-05-02T14:30:18;36.30;17.40
22787;DHT22;63134;52.020;4.714;2023-05-02T14:33:04;37.20;17.00
22787;DHT22;63134;52.020;4.714;2023-05-02T14:35:49;37.60;16.70
22787;DHT22;63134;52.020;4.714;2023-05-02T14:38:35;38.30;16.60
22787;DHT22;63134;52.020;4.714;2023-05-02T14:41:21;38.70;16.20
22787;DHT22;63134;52.020;4.714;2023-05-02T14:44:06;38.70;15.90
22787;DHT22;63134;52.020;4.714;2023-05-02T14:46:53;38.00;16.30
22787;DHT22;63134;52.020;4.714;2023-05-02T14:49:40;38.10;16.30
22787;DHT22;63134;52.020;4.714;2023-05-02T14:52:25;37.60;16.60
22787;DHT22;63134;52.020;4.714;2023-05-02T14:55:11;38.10;16.50
22787;DHT22;63134;52.020;4.714;2023-05-02T14:57:57;38.30;16.30
22787;DHT22;63134;52.020;4.714;2023-05-02T15:00:43;38.00;16.50
22787;DHT22;63134;52.020;4.714;2023-05-02T15:03:28;37.70;16.40
22787;DHT22;63134;52.020;4.714;2023-05-02T15:06:15;37.90;16.50
22787;DHT22;63134;52.020;4.714;2023-05-02T15:09:01;38.10;16.40
22787;DHT22;63134;52.020;4.714;2023-05-02T15:11:46;38.20;16.10
22787;DHT22;63134;52.020;4.714;2023-05-02T15:14:32;37.40;16.30
22787;DHT22;63134;52.020;4.714;2023-05-02T15:17:18;37.90;16.40
22787;DHT22;63134;52.020;4.714;2023-05-02T15:20:03;38.20;16.30
22787;DHT22;63134;52.020;4.714;2023-05-02T15:22:49;38.80;16.10
22787;DHT22;63134;52.020;4.714;2023-05-02T15:25:35;38.50;16.00
22787;DHT22;63134;52.020;4.714;2023-05-02T15:28:20;38.50;16.20
22787;DHT22;63134;52.020;4.714;2023-05-02T15:31:06;38.20;16.30
22787;DHT22;63134;52.020;4.714;2023-05-02T15:33:51;37.50;16.70
22787;DHT22;63134;52.020;4.714;2023-05-02T15:36:37;37.90;17.10
22787;DHT22;63134;52.020;4.714;2023-05-02T15:39:22;38.40;17.10
22787;DHT22;63134;52.020;4.714;2023-05-02T15:42:10;38.30;17.20
22787;DHT22;63134;52.020;4.714;2023-05-02T15:44:56;38.20;17.00
22787;DHT22;63134;52.020;4.714;2023-05-02T15:47:45;37.80;17.30
22787;DHT22;63134;52.020;4.714;2023-05-02T15:50:31;37.60;16.90
22787;DHT22;63134;52.020;4.714;2023-05-02T15:53:17;36.10;17.50
22787;DHT22;63134;52.020;4.714;2023-05-02T15:56:03;34.90;18.80
22787;DHT22;63134;52.020;4.714;2023-05-02T15:58:51;32.90;19.60
22787;DHT22;63134;52.020;4.714;2023-05-02T16:01:37;31.30;21.10
22787;DHT22;63134;52.020;4.714;2023-05-02T16:04:23;29.90;22.10
22787;DHT22;63134;52.020;4.714;2023-05-02T16:07:09;28.80;23.00
22787;DHT22;63134;52.020;4.714;2023-05-02T16:09:55;29.80;23.40
22787;DHT22;63134;52.020;4.714;2023-05-02T16:12:43;31.30;22.40
22787;DHT22;63134;52.020;4.714;2023-05-02T16:15:29;31.60;21.10
22787;DHT22;63134;52.020;4.714;2023-05-02T16:18:14;30.30;21.80
22787;DHT22;63134;52.020;4.714;2023-05-02T16:21:00;28.50;23.10
22787;DHT22;63134;52.020;4.714;2023-05-02T16:23:46;28.60;23.90
22787;DHT22;63134;52.020;4.714;2023-05-02T16:26:32;28.20;24.00
22787;DHT22;63134;52.020;4.714;2023-05-02T16:29:20;28.50;23.90
22787;DHT22;63134;52.020;4.714;2023-05-02T16:32:05;28.10;24.00
22787;DHT22;63134;52.020;4.714;2023-05-02T16:34:52;27.20;24.80
22787;DHT22;63134;52.020;4.714;2023-05-02T16:37:39;26.00;25.80
22787;DHT22;63134;52.020;4.714;2023-05-02T16:40:25;24.80;27.20
22787;DHT22;63134;52.020;4.714;2023-05-02T16:43:12;24.10;28.10
22787;DHT22;63134;52.020;4.714;2023-05-02T16:46:03;23.80;28.60
22787;DHT22;63134;52.020;4.714;2023-05-02T16:48:48;24.30;27.70
22787;DHT22;63134;52.020;4.714;2023-05-02T16:51:33;23.50;28.10
22787;DHT22;63134;52.020;4.714;2023-05-02T16:54:19;22.90;28.80
22787;DHT22;63134;52.020;4.714;2023-05-02T16:57:05;22.50;29.40
22787;DHT22;63134;52.020;4.714;2023-05-02T16:59:51;22.00;30.00
22787;DHT22;63134;52.020;4.714;2023-05-02T17:02:37;21.40;30.70
22787;DHT22;63134;52.020;4.714;2023-05-02T17:05:23;21.60;31.80
22787;DHT22;63134;52.020;4.714;2023-05-02T17:08:09;23.00;30.50
22787;DHT22;63134;52.020;4.714;2023-05-02T17:10:55;22.20;29.80
22787;DHT22;63134;52.020;4.714;2023-05-02T17:13:41;21.40;30.90
22787;DHT22;63134;52.020;4.714;2023-05-02T17:16:28;20.80;32.50
22787;DHT22;63134;52.020;4.714;2023-05-02T17:19:13;20.20;34.00
22787;DHT22;63134;52.020;4.714;2023-05-02T17:21:59;19.60;35.30
22787;DHT22;63134;52.020;4.714;2023-05-02T17:24:45;19.30;36.10
22787;DHT22;63134;52.020;4.714;2023-05-02T17:27:34;19.30;36.60
22787;DHT22;63134;52.020;4.714;2023-05-02T17:30:20;19.00;36.90
22787;DHT22;63134;52.020;4.714;2023-05-02T17:33:05;18.60;37.70
22787;DHT22;63134;52.020;4.714;2023-05-02T17:35:51;18.10;38.70
22787;DHT22;63134;52.020;4.714;2023-05-02T17:38:36;17.90;39.80
22787;DHT22;63134;52.020;4.714;2023-05-02T17:41:25;17.60;40.40
22787;DHT22;63134;52.020;4.714;2023-05-02T17:44:11;17.30;41.80
22787;DHT22;63134;52.020;4.714;2023-05-02T17:46:56;16.90;42.60
22787;DHT22;63134;52.020;4.714;2023-05-02T17:49:42;16.70;43.20
22787;DHT22;63134;52.020;4.714;2023-05-02T17:52:27;16.30;44.40
22787;DHT22;63134;52.020;4.714;2023-05-02T17:55:13;16.00;45.40
22787;DHT22;63134;52.020;4.714;2023-05-02T17:58:01;15.60;46.10
22787;DHT22;63134;52.020;4.714;2023-05-02T18:00:46;15.40;46.80
22787;DHT22;63134;52.020;4.714;2023-05-02T18:03:32;15.20;47.80
22787;DHT22;63134;52.020;4.714;2023-05-02T18:06:18;14.90;48.50